Time;durP1;ratioP1;P1;durP2;ratioP2;P2;SDS_P1;SDS_P2;PMS_P1;PMS_P2;Temp;Humidity;BMP_temperature;BMP_pressure;BME280_temperature;BME280_humidity;BME280_pressure;Samples;Min_cycle;Max_cycle;Signal;HPM_P1;HPM_P2
2022/07/20 00:00:40;;;;;;;5.00;2.33;;;23.40;56.80;;;;;;4993315;28;20049;-75
2022/07/20 00:03:08;;;;;;;3.75;2.00;;;23.30;56.90;;;;;;4993813;28;20042;-76
2022/07/20 00:05:34;;;;;;;3.97;2.20;;;23.20;56.60;;;;;;5023728;28;20116;-76
2022/07/20 00:08:00;;;;;;;6.75;2.35;;;23.30;56.70;;;;;;4991913;28;20050;-75
2022/07/20 00:13:11;;;;;;;7.70;2.17;;;23.20;56.80;;;;;;5023047;28;20641;-75
2022/07/20 00:15:37;;;;;;;5.30;2.15;;;23.10;56.90;;;;;;5024457;28;20046;-75
2022/07/20 00:18:02;;;;;;;3.40;2.17;;;23.10;57.20;;;;;;5026447;28;20097;-77
2022/07/20 00:20:28;;;;;;;6.15;2.17;;;23.10;57.00;;;;;;4992318;28;20161;-76
2022/07/20 00:22:56;;;;;;;3.28;2.30;;;23.00;57.10;;;;;;5028125;28;20046;-75
2022/07/20 00:25:21;;;;;;;4.80;2.70;;;23.00;57.20;;;;;;5008235;28;20130;-76
2022/07/20 00:27:47;;;;;;;4.20;2.20;;;23.00;57.20;;;;;;5028706;28;20033;-76
2022/07/20 00:30:13;;;;;;;6.20;2.53;;;22.90;57.30;;;;;;4996622;28;20481;-76
2022/07/20 00:32:39;;;;;;;4.45;2.38;;;22.90;57.70;;;;;;5012395;28;20097;-76
2022/07/20 00:35:07;;;;;;;3.45;2.17;;;22.80;58.40;;;;;;4981759;28;20135;-76
2022/07/20 00:37:33;;;;;;;6.60;2.50;;;22.70;57.80;;;;;;5032866;28;20413;-76
2022/07/20 00:39:59;;;;;;;4.78;2.33;;;22.70;58.10;;;;;;5013613;28;20049;-76
2022/07/20 00:42:25;;;;;;;5.05;2.15;;;22.60;58.20;;;;;;5027327;28;20064;-75
2022/07/20 00:44:51;;;;;;;4.72;2.13;;;22.60;58.30;;;;;;4997958;28;20046;-75
2022/07/20 00:47:16;;;;;;;3.85;2.13;;;22.50;58.40;;;;;;4996495;28;20374;-75
2022/07/20 00:49:42;;;;;;;4.13;2.40;;;22.50;58.40;;;;;;5028570;28;20150;-75
2022/07/20 00:52:08;;;;;;;3.80;1.92;;;22.40;58.60;;;;;;4995086;28;20203;-75
2022/07/20 00:54:35;;;;;;;5.10;2.33;;;22.30;58.80;;;;;;5008436;28;20618;-75
2022/07/20 00:57:01;;;;;;;4.25;2.10;;;22.30;58.80;;;;;;4993425;28;20116;-75
2022/07/20 00:59:27;;;;;;;4.18;2.35;;;22.30;58.90;;;;;;4996000;28;20498;-76
2022/07/20 01:01:53;;;;;;;3.40;2.40;;;22.30;58.90;;;;;;4994338;28;20243;-75
2022/07/20 01:04:19;;;;;;;5.60;2.17;;;22.20;59.10;;;;;;4996580;28;20117;-75
2022/07/20 01:06:45;;;;;;;5.28;2.50;;;22.20;59.30;;;;;;5010884;28;20567;-75
2022/07/20 01:09:11;;;;;;;3.25;2.30;;;22.20;59.10;;;;;;4996846;28;20410;-75
2022/07/20 01:11:37;;;;;;;5.57;2.30;;;22.10;59.30;;;;;;4995428;28;20053;-75
2022/07/20 01:14:07;;;;;;;6.13;2.40;;;22.10;59.30;;;;;;4995452;28;20034;-75
2022/07/20 01:16:34;;;;;;;4.28;2.40;;;22.10;59.40;;;;;;5026031;28;20548;-75
2022/07/20 01:19:00;;;;;;;5.88;2.50;;;22.10;59.50;;;;;;5032135;28;20042;-75
2022/07/20 01:21:26;;;;;;;5.13;2.55;;;22.00;59.30;;;;;;5025969;28;20042;-75
2022/07/20 01:23:51;;;;;;;4.15;2.60;;;22.00;59.40;;;;;;5030495;28;20046;-75
2022/07/20 01:26:18;;;;;;;7.43;2.50;;;22.00;59.50;;;;;;5030739;28;20493;-75
2022/07/20 01:28:44;;;;;;;3.67;2.17;;;22.00;59.60;;;;;;4991283;28;20069;-75
2022/07/20 01:31:10;;;;;;;4.15;2.70;;;21.90;59.80;;;;;;4998145;28;20045;-75
2022/07/20 01:33:35;;;;;;;5.63;2.45;;;21.80;59.90;;;;;;4996633;28;20041;-75
2022/07/20 01:36:02;;;;;;;5.03;2.47;;;21.80;60.00;;;;;;4995649;28;20083;-75
2022/07/20 01:38:27;;;;;;;5.95;2.70;;;21.80;60.10;;;;;;4993319;28;20780;-75
2022/07/20 01:40:53;;;;;;;3.03;2.22;;;21.80;60.20;;;;;;5030415;28;20040;-75
2022/07/20 01:43:19;;;;;;;4.70;2.67;;;21.80;60.20;;;;;;4990376;28;20496;-75
2022/07/20 01:45:44;;;;;;;3.47;2.70;;;21.70;60.30;;;;;;5027180;28;20489;-76
2022/07/20 01:48:10;;;;;;;4.13;2.47;;;21.70;60.30;;;;;;5027264;28;20041;-75
2022/07/20 01:50:37;;;;;;;6.40;2.85;;;21.70;60.50;;;;;;4996281;28;20423;-75
2022/07/20 01:53:03;;;;;;;5.13;2.53;;;21.70;60.70;;;;;;5010205;28;20041;-75
2022/07/20 01:55:29;;;;;;;4.85;2.65;;;21.70;60.70;;;;;;4994975;28;20125;-75
2022/07/20 01:57:54;;;;;;;5.07;2.70;;;21.60;60.70;;;;;;5028172;28;20065;-75
2022/07/20 02:00:20;;;;;;;11.20;3.50;;;21.60;60.80;;;;;;4996032;28;20125;-75
2022/07/20 02:02:46;;;;;;;4.78;2.85;;;21.60;60.90;;;;;;4982041;28;20042;-75
2022/07/20 02:05:12;;;;;;;3.72;2.30;;;21.60;61.00;;;;;;4978755;28;20044;-75
2022/07/20 02:07:38;;;;;;;4.50;2.72;;;21.50;61.20;;;;;;4994802;28;20038;-75
2022/07/20 02:10:10;;;;;;;4.28;2.53;;;21.50;61.30;;;;;;4969790;28;20120;-75
2022/07/20 02:12:36;;;;;;;7.82;2.97;;;21.50;61.30;;;;;;4978106;28;20069;-74
2022/07/20 02:15:05;;;;;;;4.13;2.80;;;21.50;61.40;;;;;;4991993;28;20072;-74
2022/07/20 02:17:31;;;;;;;4.22;2.83;;;21.50;61.50;;;;;;4996728;28;20057;-74
2022/07/20 02:19:57;;;;;;;6.65;2.60;;;21.40;61.40;;;;;;4993505;28;20041;-74
2022/07/20 02:22:22;;;;;;;5.15;3.10;;;21.40;61.50;;;;;;5014819;28;20112;-75
2022/07/20 02:24:48;;;;;;;5.32;2.60;;;21.40;61.50;;;;;;4993084;28;20478;-75
2022/07/20 02:27:14;;;;;;;3.53;2.83;;;21.40;61.80;;;;;;5009811;28;20046;-74
2022/07/20 02:29:40;;;;;;;5.82;2.78;;;21.40;61.80;;;;;;5004363;28;20688;-74
2022/07/20 02:32:05;;;;;;;6.20;3.10;;;21.40;61.70;;;;;;4996443;28;20390;-75
2022/07/20 02:34:31;;;;;;;5.10;2.85;;;21.40;61.90;;;;;;4993961;28;20410;-75
2022/07/20 02:36:57;;;;;;;4.88;2.63;;;21.40;62.00;;;;;;5029108;28;20042;-74
2022/07/20 02:39:23;;;;;;;4.75;3.08;;;21.30;62.10;;;;;;4992647;28;20504;-74
2022/07/20 02:41:48;;;;;;;5.28;2.97;;;21.30;62.20;;;;;;5014446;28;20406;-75
2022/07/20 02:44:14;;;;;;;3.70;2.53;;;21.20;62.60;;;;;;5024612;28;20033;-75
2022/07/20 02:46:40;;;;;;;4.47;2.72;;;21.10;62.80;;;;;;4996583;28;20038;-74
2022/07/20 02:49:07;;;;;;;3.28;2.75;;;21.00;62.80;;;;;;5025938;28;20045;-74
2022/07/20 02:51:33;;;;;;;6.20;2.50;;;21.00;63.00;;;;;;4995391;28;20045;-74
2022/07/20 02:53:58;;;;;;;4.72;2.63;;;21.00;63.10;;;;;;4992951;28;20038;-74
2022/07/20 02:56:24;;;;;;;3.83;2.95;;;21.00;63.20;;;;;;4976811;28;20038;-74
2022/07/20 02:58:50;;;;;;;5.05;2.90;;;20.90;63.30;;;;;;5008954;28;20425;-74
2022/07/20 03:01:16;;;;;;;4.30;3.13;;;20.90;63.30;;;;;;4992965;28;20049;-75
2022/07/20 03:03:42;;;;;;;4.15;2.90;;;20.90;63.30;;;;;;4994837;28;20698;-74
2022/07/20 03:06:09;;;;;;;3.60;2.72;;;20.80;63.30;;;;;;4992261;28;20510;-74
2022/07/20 03:08:34;;;;;;;6.57;3.22;;;20.80;63.60;;;;;;5026474;28;20386;-75
2022/07/20 03:11:00;;;;;;;6.80;3.05;;;20.80;63.70;;;;;;4993011;28;20030;-74
2022/07/20 03:13:26;;;;;;;6.25;2.85;;;20.70;64.10;;;;;;4996810;28;20069;-75
2022/07/20 03:15:52;;;;;;;5.85;3.10;;;20.70;64.20;;;;;;5024401;28;20041;-75
2022/07/20 03:18:18;;;;;;;5.72;2.70;;;20.60;64.20;;;;;;4992103;28;20302;-74
2022/07/20 03:20:44;;;;;;;5.57;3.22;;;20.60;64.50;;;;;;4976176;28;20078;-74
2022/07/20 03:23:10;;;;;;;5.50;2.75;;;20.50;64.50;;;;;;4980040;28;20085;-75
2022/07/20 03:25:35;;;;;;;7.53;3.40;;;20.50;64.60;;;;;;4992533;28;20053;-74
2022/07/20 03:28:01;;;;;;;5.45;3.35;;;20.50;64.70;;;;;;4996198;28;20081;-75
2022/07/20 03:30:28;;;;;;;4.15;3.08;;;20.50;65.40;;;;;;4992784;28;20041;-74
2022/07/20 03:32:54;;;;;;;4.50;3.00;;;20.50;64.80;;;;;;4993795;28;20042;-74
2022/07/20 03:35:20;;;;;;;3.55;2.85;;;20.50;64.90;;;;;;5027309;28;20044;-74
2022/07/20 03:37:46;;;;;;;6.40;3.20;;;20.50;64.90;;;;;;5025836;28;20354;-74
2022/07/20 03:40:12;;;;;;;5.90;3.10;;;20.40;65.00;;;;;;4994065;28;20078;-74
2022/07/20 03:42:38;;;;;;;4.07;2.85;;;20.40;65.00;;;;;;4992117;28;20047;-74
2022/07/20 03:45:04;;;;;;;7.00;3.03;;;20.40;64.90;;;;;;5025720;28;20041;-74
2022/07/20 03:47:30;;;;;;;4.95;3.08;;;20.40;65.10;;;;;;5008146;28;20053;-74
2022/07/20 03:49:55;;;;;;;5.72;2.92;;;20.50;65.20;;;;;;5008415;28;20409;-74
2022/07/20 03:52:21;;;;;;;5.30;2.78;;;20.40;65.30;;;;;;4991303;28;20046;-74
2022/07/20 03:54:47;;;;;;;4.53;3.10;;;20.40;65.30;;;;;;5009986;28;20092;-75
2022/07/20 03:57:13;;;;;;;6.95;2.88;;;20.40;65.20;;;;;;5022293;28;20091;-75
2022/07/20 03:59:39;;;;;;;6.10;3.20;;;20.40;65.20;;;;;;4988434;28;20413;-75
2022/07/20 04:02:05;;;;;;;5.43;2.90;;;20.40;65.30;;;;;;4992937;28;20053;-74
2022/07/20 04:04:31;;;;;;;4.97;3.05;;;20.40;65.60;;;;;;4992229;28;20532;-74
2022/07/20 04:06:57;;;;;;;6.70;3.42;;;20.40;65.90;;;;;;4992369;28;20132;-74
2022/07/20 04:12:08;;;;;;;;;;;20.30;66.20;;;;;;5028098;28;20048;-74
2022/07/20 04:14:34;;;;;;;4.72;2.92;;;20.30;66.00;;;;;;4995222;28;20013;-74
2022/07/20 04:17:00;;;;;;;5.93;3.90;;;20.20;66.50;;;;;;5025310;28;20128;-75
2022/07/20 04:19:26;;;;;;;5.75;4.35;;;20.20;67.00;;;;;;4991788;28;20410;-75
2022/07/20 04:21:55;;;;;;;5.93;3.20;;;20.20;67.50;;;;;;4991637;28;20065;-75
2022/07/20 04:24:22;;;;;;;7.53;3.97;;;20.20;67.60;;;;;;5024517;28;20072;-73
2022/07/20 04:26:47;;;;;;;7.32;3.33;;;20.20;67.50;;;;;;4992382;28;20045;-73
2022/07/20 04:29:16;;;;;;;5.82;2.70;;;20.30;67.80;;;;;;5026326;28;20037;-73
2022/07/20 04:31:41;;;;;;;7.28;4.70;;;20.30;67.90;;;;;;5023133;28;20053;-73
2022/07/20 04:34:07;;;;;;;7.72;4.80;;;20.30;68.00;;;;;;5025382;28;20069;-74
2022/07/20 04:36:33;;;;;;;8.15;3.67;;;20.30;68.50;;;;;;5030458;28;20117;-75
2022/07/20 04:38:59;;;;;;;7.13;3.30;;;20.40;68.40;;;;;;4992190;28;20061;-75
2022/07/20 04:41:24;;;;;;;4.13;2.50;;;20.40;68.50;;;;;;5011886;28;20054;-75
2022/07/20 04:43:50;;;;;;;5.82;3.40;;;20.50;68.00;;;;;;5023665;28;20454;-75
2022/07/20 04:46:16;;;;;;;4.75;3.58;;;20.60;68.20;;;;;;5026711;28;20486;-75
2022/07/20 04:48:41;;;;;;;6.82;3.53;;;20.70;68.50;;;;;;4976062;28;20041;-75
2022/07/20 04:51:07;;;;;;;5.30;3.40;;;20.70;68.30;;;;;;5026949;28;20080;-75
2022/07/20 04:53:33;;;;;;;10.55;5.22;;;20.80;68.80;;;;;;5007554;28;20046;-75
2022/07/20 04:55:59;;;;;;;6.13;2.97;;;20.80;69.10;;;;;;4992794;28;20501;-75
2022/07/20 04:58:25;;;;;;;4.95;2.65;;;20.90;68.80;;;;;;4975824;28;20058;-75
2022/07/20 05:00:50;;;;;;;5.43;3.20;;;21.00;69.20;;;;;;5026831;28;20064;-75
2022/07/20 05:03:16;;;;;;;11.23;9.80;;;21.10;70.00;;;;;;4991623;28;20076;-75
2022/07/20 05:05:42;;;;;;;6.82;4.35;;;21.40;68.60;;;;;;4993690;28;20049;-75
2022/07/20 05:08:08;;;;;;;5.18;3.05;;;21.70;67.80;;;;;;5027749;28;20466;-75
2022/07/20 05:10:34;;;;;;;5.70;3.17;;;21.90;66.80;;;;;;5011352;28;20042;-75
2022/07/20 05:13:00;;;;;;;6.68;3.17;;;22.10;67.50;;;;;;5012230;28;20050;-75
2022/07/20 05:15:26;;;;;;;6.07;3.15;;;22.70;67.30;;;;;;4994511;28;20092;-75
2022/07/20 05:17:52;;;;;;;4.88;2.90;;;23.20;66.10;;;;;;5029091;28;20038;-75
2022/07/20 05:20:18;;;;;;;5.50;3.03;;;23.30;66.30;;;;;;4977853;28;20061;-75
2022/07/20 05:22:44;;;;;;;4.78;3.17;;;23.40;66.00;;;;;;5000639;28;20481;-75
2022/07/20 05:25:10;;;;;;;4.03;2.80;;;23.60;64.70;;;;;;5027824;28;20044;-76
2022/07/20 05:27:36;;;;;;;4.07;2.72;;;24.00;63.10;;;;;;4997302;28;20289;-76
2022/07/20 05:30:04;;;;;;;5.82;2.50;;;24.30;62.90;;;;;;4992923;28;20076;-78
2022/07/20 05:32:30;;;;;;;5.97;3.00;;;24.30;63.00;;;;;;5014690;28;20034;-75
2022/07/20 05:34:56;;;;;;;5.55;2.47;;;24.20;64.00;;;;;;5005404;28;20128;-76
2022/07/20 05:37:22;;;;;;;4.78;3.08;;;24.00;64.00;;;;;;4996757;28;20103;-75
2022/07/20 05:39:47;;;;;;;6.25;3.15;;;23.90;64.10;;;;;;5028557;28;20034;-75
2022/07/20 05:42:13;;;;;;;8.55;3.08;;;23.80;64.40;;;;;;5025449;28;20117;-75
2022/07/20 05:44:39;;;;;;;4.18;3.25;;;23.80;64.20;;;;;;5010944;28;20057;-75
2022/07/20 05:47:09;;;;;;;4.93;3.03;;;23.80;64.00;;;;;;5025970;28;20030;-76
2022/07/20 05:49:38;;;;;;;5.15;3.13;;;23.80;63.80;;;;;;4993848;28;20168;-75
2022/07/20 05:52:04;;;;;;;7.95;3.10;;;23.80;64.90;;;;;;4995336;28;20060;-75
2022/07/20 05:54:30;;;;;;;7.43;3.58;;;23.90;64.70;;;;;;4996094;28;20125;-75
2022/07/20 05:56:56;;;;;;;6.60;3.35;;;24.00;64.60;;;;;;5028252;28;20706;-75
2022/07/20 05:59:22;;;;;;;7.13;3.22;;;24.00;63.90;;;;;;4994692;28;20373;-75
2022/07/20 06:01:48;;;;;;;6.53;3.22;;;24.10;65.10;;;;;;5011010;28;20045;-75
2022/07/20 06:04:14;;;;;;;6.55;3.58;;;24.20;65.30;;;;;;5030154;28;20048;-75
2022/07/20 06:06:40;;;;;;;8.25;2.95;;;24.30;64.60;;;;;;4978022;28;20136;-75
2022/07/20 06:09:07;;;;;;;5.20;3.83;;;24.40;64.50;;;;;;5012578;28;20069;-75
2022/07/20 06:11:33;;;;;;;5.70;3.30;;;24.50;63.30;;;;;;4993096;28;20038;-75
2022/07/20 06:13:59;;;;;;;7.45;3.67;;;24.60;63.40;;;;;;4995970;28;20034;-75
2022/07/20 06:16:25;;;;;;;8.65;4.00;;;24.80;63.20;;;;;;4996158;28;20053;-75
2022/07/20 06:18:51;;;;;;;6.55;3.70;;;24.90;62.80;;;;;;4982053;28;20073;-75
2022/07/20 06:21:17;;;;;;;7.90;3.47;;;25.00;61.60;;;;;;5011421;28;20605;-75
2022/07/20 06:23:42;;;;;;;6.60;3.17;;;25.10;60.70;;;;;;4982086;28;20037;-76
2022/07/20 06:26:08;;;;;;;8.88;3.40;;;25.20;61.20;;;;;;5012068;28;20046;-76
2022/07/20 06:28:34;;;;;;;3.53;2.92;;;25.30;60.50;;;;;;5010811;28;20085;-76
2022/07/20 06:31:00;;;;;;;7.45;3.05;;;25.40;60.50;;;;;;5028149;28;20525;-76
2022/07/20 06:33:26;;;;;;;7.45;3.40;;;25.50;61.10;;;;;;5028078;28;20057;-76
2022/07/20 06:35:52;;;;;;;9.77;3.92;;;25.60;61.00;;;;;;4978603;28;20048;-76
2022/07/20 06:38:17;;;;;;;8.23;2.90;;;25.70;62.20;;;;;;5009428;28;20056;-76
2022/07/20 06:40:43;;;;;;;6.43;3.05;;;25.80;61.40;;;;;;4990668;28;20120;-76
2022/07/20 06:43:09;;;;;;;10.38;3.15;;;26.00;60.50;;;;;;5008550;28;20045;-76
2022/07/20 06:45:34;;;;;;;4.95;2.83;;;26.10;60.00;;;;;;4991426;28;20033;-76
2022/07/20 06:48:00;;;;;;;10.95;3.17;;;26.30;60.90;;;;;;4994038;28;20041;-76
2022/07/20 06:50:26;;;;;;;7.35;3.60;;;26.40;59.90;;;;;;5028780;28;20042;-75
2022/07/20 06:52:52;;;;;;;5.50;2.83;;;26.40;58.70;;;;;;5009439;28;20046;-76
2022/07/20 06:55:17;;;;;;;8.40;3.53;;;26.60;59.10;;;;;;4996978;28;20046;-75
2022/07/20 06:57:44;;;;;;;6.35;3.03;;;26.80;58.90;;;;;;5013028;28;20048;-75
2022/07/20 07:00:11;;;;;;;12.88;3.70;;;26.90;58.00;;;;;;5026701;28;20124;-76
2022/07/20 07:02:37;;;;;;;7.13;3.70;;;27.00;58.30;;;;;;4994349;28;20038;-76
2022/07/20 07:05:03;;;;;;;12.18;3.95;;;27.10;58.00;;;;;;5013346;28;20462;-76
2022/07/20 07:07:29;;;;;;;6.25;4.10;;;27.30;57.80;;;;;;5027520;28;20046;-76
2022/07/20 07:09:55;;;;;;;5.80;4.30;;;27.40;57.80;;;;;;5001662;28;20067;-76
2022/07/20 07:12:21;;;;;;;6.38;4.22;;;27.50;57.50;;;;;;4995132;28;20096;-75
2022/07/20 07:14:47;;;;;;;11.20;4.93;;;27.60;57.70;;;;;;4991714;28;20053;-76
2022/07/20 07:17:12;;;;;;;11.57;5.20;;;27.80;57.80;;;;;;4993062;28;20050;-76
2022/07/20 07:19:41;;;;;;;10.70;5.60;;;27.90;59.00;;;;;;4992000;28;20046;-76
2022/07/20 07:22:07;;;;;;;12.43;6.07;;;28.00;58.80;;;;;;5008448;28;20045;-76
2022/07/20 07:24:33;;;;;;;9.77;5.65;;;28.20;59.20;;;;;;4992842;28;20501;-76
2022/07/20 07:26:58;;;;;;;11.65;6.35;;;28.30;58.60;;;;;;5025986;28;20196;-76
2022/07/20 07:29:25;;;;;;;13.23;6.55;;;28.40;58.60;;;;;;4989031;28;20047;-76
2022/07/20 07:31:51;;;;;;;9.25;6.20;;;28.60;58.70;;;;;;5028098;28;20038;-76
2022/07/20 07:34:17;;;;;;;9.13;5.95;;;28.70;58.40;;;;;;5008533;28;20052;-76
2022/07/20 07:36:43;;;;;;;9.32;5.53;;;28.80;58.70;;;;;;4975120;28;20054;-76
2022/07/20 07:39:09;;;;;;;10.43;6.25;;;28.90;59.40;;;;;;4976031;28;20096;-76
2022/07/20 07:41:35;;;;;;;7.32;6.18;;;29.10;58.70;;;;;;4978807;28;20034;-76
2022/07/20 07:44:01;;;;;;;9.27;6.43;;;29.20;59.00;;;;;;4991765;28;20065;-76
2022/07/20 07:46:26;;;;;;;12.25;6.63;;;29.30;58.70;;;;;;4995548;28;20042;-76
2022/07/20 07:48:53;;;;;;;10.77;6.72;;;29.40;58.80;;;;;;4992065;28;20092;-76
2022/07/20 07:51:18;;;;;;;10.57;7.80;;;29.50;59.60;;;;;;4981145;28;20045;-75
2022/07/20 07:53:44;;;;;;;12.35;8.48;;;29.60;59.80;;;;;;4996892;28;20047;-75
2022/07/20 07:56:14;;;;;;;16.58;9.25;;;29.60;59.80;;;;;;5025169;28;20030;-75
2022/07/20 07:58:40;;;;;;;13.45;10.13;;;29.70;60.90;;;;;;4986433;28;20062;-74
2022/07/20 08:01:05;;;;;;;14.82;11.80;;;29.70;60.60;;;;;;5004589;28;20058;-75
2022/07/20 08:03:31;;;;;;;14.25;10.80;;;29.80;61.40;;;;;;4994151;28;20490;-74
2022/07/20 08:05:57;;;;;;;14.23;10.77;;;29.90;61.90;;;;;;5007952;28;20544;-75
2022/07/20 08:08:22;;;;;;;16.17;11.02;;;30.10;61.50;;;;;;4994515;28;20141;-75
2022/07/20 08:10:48;;;;;;;20.10;11.25;;;30.30;61.30;;;;;;4975948;28;20049;-76
2022/07/20 08:13:14;;;;;;;13.52;11.18;;;30.50;61.40;;;;;;5011946;28;20367;-76
2022/07/20 08:15:40;;;;;;;15.43;11.45;;;30.70;61.30;;;;;;5022904;28;20050;-76
2022/07/20 08:18:06;;;;;;;16.83;11.95;;;31.10;61.30;;;;;;4992556;28;20497;-76
2022/07/20 08:20:32;;;;;;;19.00;12.75;;;31.50;60.20;;;;;;5026417;28;20125;-76
2022/07/20 08:22:58;;;;;;;15.63;11.95;;;32.00;60.00;;;;;;5008268;28;20232;-76
2022/07/20 08:25:24;;;;;;;19.40;13.38;;;32.30;59.50;;;;;;4977033;28;20327;-76
2022/07/20 08:27:50;;;;;;;15.27;12.32;;;32.50;59.30;;;;;;4993968;28;20493;-76
2022/07/20 08:30:16;;;;;;;19.90;13.43;;;32.70;59.30;;;;;;5023747;28;20127;-76
2022/07/20 08:32:42;;;;;;;17.35;13.75;;;32.80;60.10;;;;;;5008476;28;20483;-75
2022/07/20 08:35:10;;;;;;;18.92;13.07;;;33.00;59.40;;;;;;4991407;28;20100;-75
2022/07/20 08:37:37;;;;;;;21.50;18.55;;;33.20;59.50;;;;;;4992281;28;20379;-76
2022/07/20 08:40:03;;;;;;;18.90;15.23;;;33.30;58.60;;;;;;4991752;28;20052;-76
2022/07/20 08:42:29;;;;;;;15.88;13.10;;;33.40;59.00;;;;;;5025768;28;20049;-76
2022/07/20 08:44:54;;;;;;;19.80;13.00;;;33.40;59.00;;;;;;4993934;28;20044;-76
2022/07/20 08:47:24;;;;;;;16.33;12.93;;;33.60;60.20;;;;;;5028511;28;20533;-76
2022/07/20 08:49:50;;;;;;;17.80;12.65;;;33.90;58.50;;;;;;4981139;28;20044;-77
2022/07/20 08:52:17;;;;;;;19.30;13.55;;;33.90;57.80;;;;;;4994330;28;20038;-76
2022/07/20 08:54:44;;;;;;;20.05;13.13;;;34.10;58.20;;;;;;4998421;28;20046;-77
2022/07/20 08:57:11;;;;;;;17.73;13.25;;;34.20;57.30;;;;;;4995972;28;20042;-76
2022/07/20 08:59:37;;;;;;;19.45;13.63;;;34.20;58.10;;;;;;4981266;28;20061;-76
2022/07/20 09:02:08;;;;;;;17.15;14.80;;;34.20;57.90;;;;;;5015251;28;20053;-75
2022/07/20 09:04:55;;;;;;;20.00;14.95;;;34.30;57.00;;;;;;4987506;28;20109;-75
2022/07/20 09:07:37;;;;;;;21.52;15.95;;;34.40;54.40;;;;;;4979803;28;20129;-75
2022/07/20 09:10:06;;;;;;;19.88;16.10;;;34.30;56.00;;;;;;4997397;28;20053;-76
2022/07/20 09:12:31;;;;;;;22.10;16.77;;;34.30;56.00;;;;;;4994269;28;20037;-77
2022/07/20 09:14:58;;;;;;;22.73;15.95;;;34.20;55.30;;;;;;5029480;28;20052;-77
2022/07/20 09:17:25;;;;;;;98.90;89.68;;;34.00;54.90;;;;;;4994387;28;20041;-77
2022/07/20 09:20:07;;;;;;;20.80;18.60;;;34.00;55.10;;;;;;5028277;28;20124;-75
2022/07/20 09:22:37;;;;;;;21.00;16.80;;;34.00;54.60;;;;;;5027051;28;20037;-76
2022/07/20 09:25:09;;;;;;;23.50;16.70;;;34.00;55.10;;;;;;4996259;28;20108;-70
2022/07/20 09:27:36;;;;;;;20.45;15.93;;;34.20;55.00;;;;;;5012304;28;20109;-69
2022/07/20 09:30:11;;;;;;;19.98;15.63;;;34.20;55.20;;;;;;4995240;28;20137;-71
2022/07/20 09:33:01;;;;;;;18.88;15.15;;;34.10;54.60;;;;;;5027701;28;20056;-69
2022/07/20 09:35:33;;;;;;;18.98;14.68;;;34.10;53.50;;;;;;4997372;28;20088;-69
2022/07/20 09:38:05;;;;;;;22.00;14.30;;;34.00;54.50;;;;;;5009325;28;20081;-79
2022/07/20 09:40:42;;;;;;;22.33;14.37;;;33.80;54.20;;;;;;4981971;28;20046;-76
2022/07/20 09:43:30;;;;;;;16.63;14.25;;;33.70;53.80;;;;;;4993784;28;20521;-77
2022/07/20 09:46:09;;;;;;;27.50;14.27;;;33.60;54.10;;;;;;4984660;28;20054;-77
2022/07/20 09:48:44;;;;;;;15.20;13.13;;;33.60;54.00;;;;;;4994650;28;20429;-75
2022/07/20 09:51:30;;;;;;;17.00;12.95;;;33.60;53.00;;;;;;4998462;28;20096;-76
2022/07/20 09:54:02;;;;;;;16.10;11.98;;;33.60;51.20;;;;;;5027161;28;20056;-76
2022/07/20 09:56:28;;;;;;;15.57;11.43;;;33.50;51.60;;;;;;4992173;28;20084;-76
2022/07/20 09:58:55;;;;;;;14.90;11.95;;;33.40;51.40;;;;;;5009499;28;20508;-76
2022/07/20 10:01:24;;;;;;;13.05;11.18;;;33.30;51.20;;;;;;4997810;28;20042;-76
2022/07/20 10:03:52;;;;;;;14.40;11.43;;;33.20;51.80;;;;;;4979965;28;20057;-75
2022/07/20 10:06:19;;;;;;;15.27;10.55;;;33.10;51.80;;;;;;4995656;28;20124;-75
2022/07/20 10:08:45;;;;;;;14.38;10.52;;;33.00;51.50;;;;;;4995063;28;20501;-76
2022/07/20 10:11:12;;;;;;;13.30;9.93;;;33.00;52.10;;;;;;5029352;28;20037;-75
2022/07/20 10:13:40;;;;;;;13.65;10.02;;;33.10;51.80;;;;;;5023226;28;20041;-75
2022/07/20 10:16:14;;;;;;;10.75;9.52;;;33.20;51.60;;;;;;4995071;28;20077;-76
2022/07/20 10:18:43;;;;;;;12.43;10.13;;;33.50;50.40;;;;;;4993659;28;20046;-76
2022/07/20 10:21:31;;;;;;;11.63;9.82;;;33.60;50.10;;;;;;4977223;28;20054;-77
2022/07/20 10:24:34;;;;;;;11.82;9.05;;;33.60;48.70;;;;;;5012210;28;20095;-75
2022/07/20 10:27:03;;;;;;;11.63;9.10;;;33.50;49.00;;;;;;4986775;28;20112;-75
2022/07/20 10:29:32;;;;;;;13.60;9.18;;;33.40;50.00;;;;;;5007462;28;20054;-77
2022/07/20 10:32:10;;;;;;;11.23;8.68;;;33.50;48.60;;;;;;4999775;28;20038;-76
2022/07/20 10:34:37;;;;;;;12.48;8.50;;;33.50;48.40;;;;;;4993347;28;20053;-74
2022/07/20 10:37:25;;;;;;;15.45;8.88;;;33.40;49.00;;;;;;4982366;28;20500;-75
2022/07/20 10:40:07;;;;;;;10.98;8.07;;;33.30;50.10;;;;;;5013774;28;20145;-76
2022/07/20 10:42:37;;;;;;;14.32;8.50;;;33.20;50.40;;;;;;4995820;28;20192;-76
2022/07/20 10:45:27;;;;;;;9.30;7.57;;;33.40;49.70;;;;;;4994386;28;20054;-76
2022/07/20 10:48:12;;;;;;;11.05;7.72;;;33.40;48.60;;;;;;5028306;28;20045;-75
2022/07/20 10:50:44;;;;;;;10.88;6.80;;;33.50;50.10;;;;;;4999818;28;20041;-76
2022/07/20 10:53:10;;;;;;;8.70;6.10;;;33.60;49.40;;;;;;4996869;28;20050;-75
2022/07/20 10:55:36;;;;;;;11.93;7.63;;;33.90;49.30;;;;;;4992729;28;20569;-75
2022/07/20 10:58:12;;;;;;;8.55;6.88;;;34.30;49.90;;;;;;5010099;28;20119;-76
2022/07/20 11:01:05;;;;;;;8.38;7.05;;;34.60;47.50;;;;;;5007179;28;20085;-76
2022/07/20 11:03:44;;;;;;;12.55;6.97;;;34.70;48.70;;;;;;4988559;28;20050;-76
2022/07/20 11:06:23;;;;;;;11.10;7.13;;;34.80;47.80;;;;;;4977448;28;20046;-75
2022/07/20 11:08:48;;;;;;;10.75;6.05;;;34.60;47.00;;;;;;4994384;28;20422;-75
2022/07/20 11:11:20;;;;;;;10.15;6.07;;;34.60;47.10;;;;;;5025571;28;20084;-74
2022/07/20 11:13:47;;;;;;;8.65;6.60;;;34.60;47.10;;;;;;5025288;28;20565;-76
2022/07/20 11:16:13;;;;;;;10.23;6.57;;;34.70;47.30;;;;;;4994057;28;20125;-76
2022/07/20 11:18:39;;;;;;;12.90;6.60;;;34.90;46.70;;;;;;4994131;28;20092;-74
2022/07/20 11:21:07;;;;;;;8.85;6.25;;;35.00;46.50;;;;;;4993058;28;20038;-74
2022/07/20 11:23:50;;;;;;;9.30;6.28;;;35.00;47.60;;;;;;5012192;28;20048;-75
2022/07/20 11:26:20;;;;;;;10.05;6.47;;;35.10;47.60;;;;;;5008424;28;20084;-74
2022/07/20 11:28:51;;;;;;;9.85;6.10;;;35.30;47.20;;;;;;4988549;28;20156;-74
2022/07/20 11:31:20;;;;;;;8.52;6.35;;;35.30;47.00;;;;;;4976743;28;20143;-74
2022/07/20 11:33:48;;;;;;;10.27;6.45;;;35.30;46.80;;;;;;4986598;28;20375;-73
2022/07/20 11:36:16;;;;;;;8.32;5.75;;;35.30;45.80;;;;;;5006704;28;20100;-73
2022/07/20 11:38:49;;;;;;;9.07;6.57;;;35.40;45.50;;;;;;4993104;28;20046;-74
2022/07/20 11:41:34;;;;;;;10.00;6.07;;;35.40;46.10;;;;;;4992227;28;20092;-74
2022/07/20 11:44:01;;;;;;;6.55;5.45;;;35.50;45.30;;;;;;5023825;28;20045;-73
2022/07/20 11:46:40;;;;;;;6.50;4.80;;;35.60;44.90;;;;;;4993818;28;20100;-73
2022/07/20 11:49:08;;;;;;;8.75;5.43;;;35.40;44.70;;;;;;4996363;28;20049;-73
2022/07/20 11:51:37;;;;;;;8.55;5.50;;;35.30;44.60;;;;;;4990408;28;20118;-73
2022/07/20 11:54:06;;;;;;;6.03;5.18;;;35.10;44.90;;;;;;4992473;28;20038;-74
2022/07/20 11:56:34;;;;;;;9.05;5.57;;;34.90;45.10;;;;;;5020542;28;20063;-73
2022/07/20 11:59:01;;;;;;;10.73;5.53;;;35.00;45.30;;;;;;4975298;28;20103;-73
2022/07/20 12:01:29;;;;;;;5.40;4.45;;;35.10;45.30;;;;;;5027341;28;20042;-74
2022/07/20 12:04:01;;;;;;;7.15;4.97;;;35.00;44.90;;;;;;5010077;28;20046;-75
2022/07/20 12:06:32;;;;;;;7.28;4.53;;;35.00;45.40;;;;;;5024134;28;20048;-75
2022/07/20 12:09:07;;;;;;;6.60;4.75;;;35.10;45.20;;;;;;4992092;28;20395;-75
2022/07/20 12:11:34;;;;;;;6.70;4.47;;;35.20;43.40;;;;;;5016016;28;20042;-74
2022/07/20 12:14:00;;;;;;;7.57;4.72;;;35.00;44.40;;;;;;5024153;28;20552;-74
2022/07/20 12:16:37;;;;;;;10.40;4.50;;;34.90;44.50;;;;;;5006923;28;20049;-74
2022/07/20 12:19:03;;;;;;;8.50;4.65;;;34.90;45.50;;;;;;5022953;28;20046;-73
2022/07/20 12:21:43;;;;;;;7.32;4.20;;;34.90;45.00;;;;;;4997408;28;20049;-75
2022/07/20 12:24:09;;;;;;;8.13;4.80;;;35.10;43.40;;;;;;4979550;28;20102;-75
2022/07/20 12:26:35;;;;;;;7.60;4.65;;;35.00;44.10;;;;;;4997843;28;20049;-74
2022/07/20 12:29:26;;;;;;;5.75;4.60;;;35.00;43.60;;;;;;5027963;28;20092;-74
2022/07/20 12:32:04;;;;;;;6.70;4.20;;;34.90;43.60;;;;;;5012707;28;20442;-74
2022/07/20 12:34:33;;;;;;;5.68;4.30;;;34.90;43.40;;;;;;4993544;28;20211;-75
2022/07/20 12:36:58;;;;;;;7.47;4.43;;;34.90;44.60;;;;;;4999798;28;20679;-74
2022/07/20 12:39:47;;;;;;;5.40;4.15;;;34.90;44.40;;;;;;4995278;28;20041;-74
2022/07/20 12:42:27;;;;;;;10.07;4.97;;;35.20;45.20;;;;;;4999480;28;20050;-73
2022/07/20 12:45:01;;;;;;;6.00;4.40;;;35.10;43.50;;;;;;4995132;28;20041;-75
2022/07/20 12:47:27;;;;;;;7.07;5.18;;;35.10;44.00;;;;;;4997839;28;20042;-74
2022/07/20 12:49:53;;;;;;;7.03;4.82;;;35.00;44.30;;;;;;4977472;28;20042;-74
2022/07/20 12:52:20;;;;;;;7.40;4.43;;;35.00;43.20;;;;;;5015051;28;20045;-75